createdAt,value
2018-06-09T00:00:07.281Z,19.50
2018-06-09T00:02:35.208Z,19.50
2018-06-09T00:05:03.113Z,19.40
2018-06-09T00:07:30.945Z,19.40
2018-06-09T00:09:58.785Z,19.40
2018-06-09T00:12:26.535Z,19.30
2018-06-09T00:14:54.325Z,19.30
2018-06-09T00:17:22.269Z,19.30
2018-06-09T00:19:50.109Z,19.20
2018-06-09T00:22:18.656Z,19.20
2018-06-09T00:24:46.451Z,19.20
2018-06-09T00:27:14.205Z,19.20
2018-06-09T00:29:42.067Z,19.20
2018-06-09T00:32:10.000Z,19.20
2018-06-09T00:34:37.861Z,19.30
2018-06-09T00:37:05.718Z,19.40
2018-06-09T00:39:33.623Z,19.50
2018-06-09T00:42:01.561Z,19.50
2018-06-09T00:44:29.367Z,19.60
2018-06-09T00:46:57.145Z,19.70
2018-06-09T00:49:24.978Z,19.80
2018-06-09T00:51:52.805Z,19.90
2018-06-09T00:54:20.625Z,20.00
2018-06-09T00:56:48.522Z,20.10
2018-06-09T00:59:16.372Z,20.20
2018-06-09T01:01:44.225Z,20.20
2018-06-09T01:04:12.125Z,20.30
2018-06-09T01:06:39.870Z,20.30
2018-06-09T01:09:08.554Z,20.30
2018-06-09T01:11:36.343Z,20.30
2018-06-09T01:14:04.244Z,20.30
2018-06-09T01:16:32.036Z,20.20
2018-06-09T01:18:59.957Z,20.20
2018-06-09T01:21:27.720Z,20.10
2018-06-09T01:23:55.632Z,20.00
2018-06-09T01:26:23.424Z,19.90
2018-06-09T01:28:51.353Z,19.80
2018-06-09T01:31:19.190Z,19.70
2018-06-09T01:33:46.950Z,19.60
2018-06-09T01:36:14.743Z,19.50
2018-06-09T01:38:42.549Z,19.40
2018-06-09T01:41:10.330Z,19.30
2018-06-09T01:43:38.069Z,19.20
2018-06-09T01:46:05.936Z,19.20
2018-06-09T01:48:33.779Z,19.10
2018-06-09T01:51:01.524Z,19.00
2018-06-09T01:53:29.306Z,18.90
2018-06-09T01:55:57.171Z,18.90
2018-06-09T01:58:24.937Z,18.80
2018-06-09T02:00:52.745Z,18.70
2018-06-09T02:03:20.521Z,18.70
2018-06-09T02:05:48.220Z,18.60
2018-06-09T02:08:16.013Z,18.50
2018-06-09T02:10:43.807Z,18.50
2018-06-09T02:13:11.657Z,18.40
2018-06-09T02:15:39.508Z,18.40
2018-06-09T02:18:07.384Z,18.40
2018-06-09T02:20:35.252Z,18.30
2018-06-09T02:23:03.090Z,18.30
2018-06-09T02:25:30.975Z,18.30
2018-06-09T02:30:26.659Z,18.20
2018-06-09T02:32:54.436Z,18.20
2018-06-09T02:35:22.302Z,18.10
2018-06-09T02:37:50.184Z,18.10
2018-06-09T02:40:18.161Z,18.00
2018-06-09T02:42:46.048Z,18.00
2018-06-09T02:45:13.849Z,18.00
2018-06-09T02:47:41.636Z,18.00
2018-06-09T02:50:09.478Z,18.00
2018-06-09T02:52:37.253Z,17.90
2018-06-09T02:55:05.113Z,17.90
2018-06-09T02:57:32.917Z,17.90
2018-06-09T03:00:00.785Z,17.90
2018-06-09T03:02:28.645Z,18.00
2018-06-09T03:04:56.460Z,18.00
2018-06-09T03:07:24.270Z,18.00
2018-06-09T03:09:52.146Z,18.00
2018-06-09T03:12:19.978Z,18.00
2018-06-09T03:14:47.871Z,18.00
2018-06-09T03:17:15.664Z,18.00
2018-06-09T03:19:43.589Z,18.00
2018-06-09T03:22:11.406Z,18.00
2018-06-09T03:24:39.257Z,18.10
2018-06-09T03:27:07.116Z,18.10
2018-06-09T03:29:34.940Z,18.10
2018-06-09T03:32:02.756Z,18.20
2018-06-09T03:34:30.564Z,18.20
2018-06-09T03:36:58.480Z,18.30
2018-06-09T03:39:26.381Z,18.30
2018-06-09T03:41:54.217Z,18.40
2018-06-09T03:44:22.028Z,18.40
2018-06-09T03:46:49.884Z,18.40
2018-06-09T03:49:17.728Z,18.50
2018-06-09T03:51:45.700Z,18.50
2018-06-09T03:54:13.517Z,18.60
2018-06-09T03:56:41.325Z,18.60
2018-06-09T03:59:09.126Z,18.70
2018-06-09T04:04:04.774Z,18.80
2018-06-09T04:06:32.689Z,18.80
2018-06-09T04:09:00.486Z,19.00
2018-06-09T04:11:28.246Z,19.00
2018-06-09T04:13:56.080Z,19.10
2018-06-09T04:16:23.892Z,19.30
2018-06-09T04:18:51.668Z,19.40
2018-06-09T04:21:19.580Z,19.50
2018-06-09T04:23:47.384Z,19.60
2018-06-09T04:26:15.198Z,19.70
2018-06-09T04:28:42.945Z,19.80
2018-06-09T04:31:10.771Z,20.00
2018-06-09T04:33:38.612Z,20.10
2018-06-09T04:36:06.445Z,20.20
2018-06-09T04:38:34.206Z,20.30
2018-06-09T04:41:02.056Z,20.30
2018-06-09T04:43:29.798Z,20.40
2018-06-09T04:45:57.714Z,20.60
2018-06-09T04:48:25.617Z,21.30
2018-06-09T04:50:53.465Z,22.40
2018-06-09T04:53:21.209Z,23.50
2018-06-09T04:55:48.976Z,24.30
2018-06-09T04:58:16.755Z,24.60
2018-06-09T05:00:44.503Z,25.20
2018-06-09T05:03:12.252Z,25.80
2018-06-09T05:05:40.024Z,26.40
2018-06-09T05:08:07.753Z,26.60
2018-06-09T05:13:03.369Z,26.80
2018-06-09T05:15:31.132Z,26.90
2018-06-09T05:17:58.853Z,27.30
2018-06-09T05:20:26.646Z,27.90
2018-06-09T05:22:54.469Z,28.50
2018-06-09T05:25:22.224Z,28.60
2018-06-09T05:27:49.948Z,28.30
2018-06-09T05:30:17.691Z,27.90
2018-06-09T05:32:45.556Z,27.50
2018-06-09T05:35:13.345Z,27.00
2018-06-09T05:37:41.193Z,26.50
2018-06-09T05:40:08.969Z,26.10
2018-06-09T05:42:36.813Z,25.80
2018-06-09T05:45:04.609Z,25.70
2018-06-09T05:47:32.431Z,26.00
2018-06-09T05:50:00.200Z,26.60
2018-06-09T05:52:28.056Z,27.10
2018-06-09T05:54:55.829Z,27.30
2018-06-09T05:57:23.678Z,27.40
2018-06-09T05:59:51.468Z,27.40
2018-06-09T06:02:19.239Z,27.60
2018-06-09T06:04:47.023Z,27.70
2018-06-09T06:07:14.853Z,27.90
2018-06-09T06:09:42.694Z,28.20
2018-06-09T06:12:10.403Z,28.50
2018-06-09T06:14:38.092Z,29.10
2018-06-09T06:17:05.993Z,29.80
2018-06-09T06:19:33.772Z,30.70
2018-06-09T06:22:01.640Z,31.20
2018-06-09T06:24:29.510Z,31.50
2018-06-09T06:26:57.324Z,31.70
2018-06-09T06:29:25.101Z,31.60
2018-06-09T06:31:52.900Z,31.40
2018-06-09T06:34:20.620Z,31.10
2018-06-09T06:36:48.456Z,30.60
2018-06-09T06:39:16.265Z,30.30
2018-06-09T06:41:44.060Z,30.50
2018-06-09T06:44:11.882Z,30.90
2018-06-09T06:46:39.681Z,31.30
2018-06-09T06:49:07.476Z,31.90
2018-06-09T06:51:35.221Z,32.50
2018-06-09T06:54:03.037Z,32.80
2018-06-09T06:56:30.828Z,33.10
2018-06-09T06:58:58.677Z,33.50
2018-06-09T07:01:26.504Z,33.90
2018-06-09T07:03:54.352Z,34.30
2018-06-09T07:08:49.900Z,35.60
2018-06-09T07:11:17.707Z,36.10
2018-06-09T07:13:45.513Z,36.60
2018-06-09T07:16:13.241Z,36.50
2018-06-09T07:18:41.017Z,36.20
2018-06-09T07:21:08.863Z,35.70
2018-06-09T07:23:36.677Z,35.60
2018-06-09T07:28:32.397Z,35.40
2018-06-09T07:31:00.153Z,35.90
2018-06-09T07:33:27.946Z,36.20
2018-06-09T07:35:55.750Z,36.80
2018-06-09T07:38:23.577Z,37.00
2018-06-09T07:40:51.396Z,37.30
2018-06-09T07:43:19.173Z,37.70
2018-06-09T07:45:47.035Z,38.20
2018-06-09T07:48:14.779Z,38.50
2018-06-09T07:50:42.561Z,38.90
2018-06-09T07:53:10.231Z,39.10
2018-06-09T07:55:37.970Z,39.30
2018-06-09T07:58:05.708Z,39.30
2018-06-09T08:00:33.433Z,39.40
2018-06-09T08:03:01.201Z,39.60
2018-06-09T08:05:28.985Z,39.70
2018-06-09T08:07:56.704Z,39.70
2018-06-09T08:10:24.511Z,39.70
2018-06-09T08:26:52.197Z,39.50
2018-06-09T08:29:19.918Z,39.40
2018-06-09T08:31:47.628Z,39.30
2018-06-09T08:34:15.417Z,39.30
2018-06-09T08:36:43.199Z,39.40
2018-06-09T08:39:10.963Z,39.40
2018-06-09T08:41:38.729Z,39.40
2018-06-09T08:44:06.465Z,39.20
2018-06-09T08:46:34.254Z,39.10
2018-06-09T08:49:02.250Z,39.10
2018-06-09T08:51:30.050Z,39.10
2018-06-09T08:53:57.872Z,39.30
2018-06-09T08:56:25.577Z,39.50
2018-06-09T08:58:53.272Z,39.50
2018-06-09T09:01:21.042Z,39.60
2018-06-09T09:03:48.825Z,39.40
2018-06-09T09:06:16.557Z,39.30
2018-06-09T09:08:44.322Z,39.20
2018-06-09T09:11:12.203Z,39.20
2018-06-09T09:13:39.980Z,39.10
2018-06-09T09:16:26.718Z,39.00
2018-06-09T09:18:54.433Z,39.00
2018-06-09T09:21:22.230Z,39.10
2018-06-09T09:23:50.073Z,39.50
2018-06-09T09:26:17.744Z,39.70
2018-06-09T09:28:45.485Z,39.60
2018-06-09T09:31:13.198Z,39.70
2018-06-09T09:33:40.893Z,39.80
2018-06-09T09:36:08.698Z,39.40
2018-06-09T09:38:36.447Z,38.90
2018-06-09T09:41:04.207Z,38.80
2018-06-09T09:43:45.224Z,38.90
2018-06-09T09:46:12.974Z,39.40
2018-06-09T09:48:40.711Z,39.40
2018-06-09T09:51:08.390Z,39.40
2018-06-09T09:53:36.116Z,39.50
2018-06-09T09:56:03.908Z,39.50
2018-06-09T09:58:31.700Z,39.50
2018-06-09T10:00:59.418Z,39.60
2018-06-09T10:03:27.232Z,39.60
2018-06-09T10:05:55.016Z,39.50
2018-06-09T10:08:22.769Z,39.00
2018-06-09T10:10:50.609Z,39.10
2018-06-09T10:13:18.370Z,39.50
2018-06-09T10:15:46.117Z,40.20
2018-06-09T10:18:13.918Z,40.70
2018-06-09T10:20:41.699Z,41.20
2018-06-09T10:23:39.969Z,40.90
2018-06-09T10:26:07.772Z,40.00
2018-06-09T10:28:35.572Z,39.90
2018-06-09T10:31:03.429Z,39.20
2018-06-09T10:33:31.368Z,38.30
2018-06-09T10:35:59.253Z,37.50
2018-06-09T10:38:50.736Z,36.70
2018-06-09T10:41:18.440Z,36.30
2018-06-09T10:43:46.223Z,36.60
2018-06-09T10:46:14.021Z,37.20
2018-06-09T10:48:41.813Z,37.80
2018-06-09T10:51:09.622Z,38.00
2018-06-09T10:53:37.417Z,38.20
2018-06-09T10:56:05.263Z,38.40
2018-06-09T10:58:32.997Z,38.40
2018-06-09T11:01:00.796Z,38.40
2018-06-09T11:03:28.565Z,38.20
2018-06-09T11:05:56.284Z,38.10
2018-06-09T11:08:24.101Z,38.40
2018-06-09T11:10:51.941Z,38.60
2018-06-09T11:13:19.753Z,38.80
2018-06-09T11:18:15.286Z,38.60
2018-06-09T11:20:43.033Z,38.80
2018-06-09T11:23:10.812Z,39.10
2018-06-09T11:25:38.660Z,39.00
2018-06-09T11:28:12.097Z,38.90
2018-06-09T11:33:44.922Z,39.00
2018-06-09T11:36:12.729Z,38.20
2018-06-09T11:38:40.455Z,37.70
2018-06-09T11:41:08.226Z,37.80
2018-06-09T11:43:36.112Z,38.20
2018-06-09T11:46:03.937Z,38.50
2018-06-09T11:48:31.713Z,38.70
2018-06-09T11:50:59.449Z,38.80
2018-06-09T11:53:27.253Z,39.00
2018-06-09T11:55:55.088Z,39.20
2018-06-09T11:58:22.881Z,39.50
2018-06-09T12:00:50.640Z,39.80
2018-06-09T12:03:18.505Z,40.20
2018-06-09T12:05:46.301Z,40.30
2018-06-09T12:08:14.100Z,39.90
2018-06-09T12:10:41.829Z,39.20
2018-06-09T12:13:09.568Z,38.70
2018-06-09T12:15:37.357Z,38.70
2018-06-09T12:18:05.192Z,38.60
2018-06-09T12:20:33.008Z,38.40
2018-06-09T12:25:28.533Z,38.40
2018-06-09T12:27:56.302Z,38.30
2018-06-09T12:30:24.155Z,38.10
2018-06-09T12:32:52.003Z,37.80
2018-06-09T12:35:19.784Z,37.60
2018-06-09T12:37:47.478Z,37.40
2018-06-09T12:40:15.320Z,37.10
2018-06-09T12:42:43.121Z,36.70
2018-06-09T12:45:10.953Z,36.50
2018-06-09T12:47:38.803Z,36.40
2018-06-09T12:50:06.580Z,36.40
2018-06-09T12:52:34.348Z,36.40
2018-06-09T12:55:02.146Z,36.50
2018-06-09T12:57:29.972Z,36.50
2018-06-09T12:59:57.872Z,36.60
2018-06-09T13:02:25.710Z,36.70
2018-06-09T13:04:53.463Z,36.70
2018-06-09T13:07:21.681Z,37.10
2018-06-09T13:09:49.444Z,37.40
2018-06-09T13:12:17.264Z,37.90
2018-06-09T13:14:45.077Z,38.30
2018-06-09T13:17:12.866Z,38.60
2018-06-09T13:19:40.556Z,38.90
2018-06-09T13:22:08.464Z,39.10
2018-06-09T13:24:36.236Z,39.00
2018-06-09T13:27:04.058Z,39.00
2018-06-09T13:29:31.810Z,39.00
2018-06-09T13:31:59.592Z,38.80
2018-06-09T13:34:27.372Z,38.60
2018-06-09T13:36:55.212Z,38.40
2018-06-09T13:39:22.997Z,38.20
2018-06-09T13:42:03.224Z,37.80
2018-06-09T13:44:30.999Z,37.40
2018-06-09T13:46:58.781Z,37.20
2018-06-09T13:49:26.604Z,37.10
2018-06-09T13:51:54.360Z,37.10
2018-06-09T13:54:22.263Z,36.90
2018-06-09T13:56:50.049Z,36.80
2018-06-09T13:59:17.776Z,36.70
2018-06-09T14:01:45.569Z,36.60
2018-06-09T14:04:13.352Z,36.60
2018-06-09T14:06:41.096Z,36.70
2018-06-09T14:09:08.920Z,36.90
2018-06-09T14:11:36.738Z,36.90
2018-06-09T14:14:04.489Z,36.80
2018-06-09T14:22:11.610Z,36.90
2018-06-09T14:24:39.353Z,37.00
2018-06-09T14:27:07.692Z,36.90
2018-06-09T14:29:35.493Z,36.80
2018-06-09T14:32:03.352Z,36.70
2018-06-09T14:37:18.805Z,37.40
2018-06-09T14:39:46.620Z,37.70
2018-06-09T14:42:14.421Z,37.80
2018-06-09T14:44:42.134Z,37.70
2018-06-09T14:47:09.972Z,37.60
2018-06-09T14:49:37.787Z,37.50
2018-06-09T14:52:05.503Z,37.40
2018-06-09T14:54:33.345Z,37.20
2018-06-09T14:57:01.206Z,37.00
2018-06-09T14:59:30.950Z,36.70
2018-06-09T15:01:59.925Z,36.40
2018-06-09T15:04:27.677Z,36.20
2018-06-09T15:06:55.509Z,36.00
2018-06-09T15:09:23.373Z,35.80
2018-06-09T15:11:51.188Z,35.60
2018-06-09T15:14:18.977Z,35.50
2018-06-09T15:16:46.765Z,35.40
2018-06-09T15:19:14.661Z,35.30
2018-06-09T15:21:42.541Z,35.10
2018-06-09T15:24:10.310Z,34.80
2018-06-09T15:26:38.141Z,34.70
2018-06-09T15:29:05.959Z,34.70
2018-06-09T15:31:33.819Z,34.60
2018-06-09T15:34:01.660Z,34.60
2018-06-09T15:36:29.558Z,34.40
2018-06-09T15:38:57.342Z,34.20
2018-06-09T15:41:25.200Z,34.10
2018-06-09T15:43:53.122Z,34.00
2018-06-09T15:46:20.908Z,33.80
2018-06-09T15:48:48.780Z,33.80
2018-06-09T15:51:16.612Z,34.00
2018-06-09T15:56:12.256Z,35.10
2018-06-09T15:58:40.038Z,35.30
2018-06-09T16:01:07.840Z,35.50
2018-06-09T16:03:35.620Z,35.50
2018-06-09T16:06:03.462Z,35.20
2018-06-09T16:08:31.239Z,34.90
2018-06-09T16:10:59.018Z,34.30
2018-06-09T16:13:26.860Z,33.70
2018-06-09T16:15:54.654Z,33.30
2018-06-09T16:18:22.364Z,33.10
2018-06-09T16:20:50.164Z,32.90
2018-06-09T16:23:17.945Z,32.60
2018-06-09T16:25:45.823Z,32.20
2018-06-09T16:31:33.021Z,31.30
2018-06-09T16:34:00.773Z,30.70
2018-06-09T16:36:28.647Z,30.40
2018-06-09T16:38:56.439Z,30.20
2018-06-09T16:41:24.257Z,29.90
2018-06-09T16:43:52.049Z,29.80
2018-06-09T16:46:19.800Z,29.60
2018-06-09T16:48:47.532Z,29.40
2018-06-09T16:51:15.315Z,29.20
2018-06-09T16:53:43.102Z,29.10
2018-06-09T16:56:10.892Z,29.10
2018-06-09T16:58:38.631Z,29.00
2018-06-09T17:01:06.398Z,28.80
2018-06-09T17:03:34.216Z,28.60
2018-06-09T17:06:02.020Z,28.30
2018-06-09T17:08:29.845Z,27.90
2018-06-09T17:10:57.593Z,27.60
2018-06-09T17:13:25.397Z,27.30
2018-06-09T17:15:53.208Z,27.10
2018-06-09T17:18:20.982Z,26.90
2018-06-09T17:20:48.761Z,26.70
2018-06-09T17:23:16.553Z,26.50
2018-06-09T17:25:44.416Z,26.40
2018-06-09T17:28:12.272Z,26.20
2018-06-09T17:30:40.077Z,26.10
2018-06-09T17:33:07.927Z,26.00
2018-06-09T17:35:35.651Z,25.90
2018-06-09T17:38:03.517Z,25.80
2018-06-09T17:40:31.317Z,25.70
2018-06-09T17:42:59.121Z,25.70
2018-06-09T17:45:26.956Z,25.60
2018-06-09T17:47:54.803Z,25.50
2018-06-09T17:50:22.632Z,25.40
2018-06-09T17:52:50.484Z,25.30
2018-06-09T17:55:18.294Z,25.20
2018-06-09T17:57:46.128Z,25.10
2018-06-09T18:00:13.851Z,25.00
2018-06-09T18:02:41.672Z,24.90
2018-06-09T18:05:09.471Z,24.80
2018-06-09T18:07:37.267Z,24.70
2018-06-09T18:10:05.257Z,24.60
2018-06-09T18:12:33.214Z,24.50
2018-06-09T18:15:01.013Z,24.50
2018-06-09T18:17:28.888Z,24.40
2018-06-09T18:19:56.749Z,24.20
2018-06-09T18:22:24.536Z,24.20
2018-06-09T18:24:52.401Z,24.10
2018-06-09T18:27:22.305Z,24.10
2018-06-09T18:29:50.141Z,24.00
2018-06-09T18:32:17.974Z,24.00
2018-06-09T18:34:45.785Z,23.90
2018-06-09T18:37:13.562Z,23.80
2018-06-09T18:39:41.489Z,23.70
2018-06-09T18:42:09.321Z,23.60
2018-06-09T18:44:37.143Z,23.50
2018-06-09T18:47:05.114Z,23.50
2018-06-09T18:49:32.981Z,23.50
2018-06-09T18:52:00.851Z,23.40
2018-06-09T18:54:28.644Z,23.30
2018-06-09T18:56:56.442Z,23.30
2018-06-09T18:59:24.307Z,23.30
2018-06-09T19:01:52.133Z,23.20
2018-06-09T19:04:20.023Z,23.10
2018-06-09T19:06:47.819Z,23.00
2018-06-09T19:09:15.659Z,22.90
2018-06-09T19:11:43.525Z,22.90
2018-06-09T19:14:11.398Z,22.80
2018-06-09T19:16:54.239Z,22.80
2018-06-09T19:19:22.704Z,22.70
2018-06-09T19:21:50.394Z,22.70
2018-06-09T19:24:18.161Z,22.80
2018-06-09T19:26:45.968Z,22.80
2018-06-09T19:29:13.814Z,22.80
2018-06-09T19:31:41.657Z,22.70
2018-06-09T19:34:09.484Z,22.70
2018-06-09T19:36:37.423Z,22.70
2018-06-09T19:39:07.305Z,22.60
2018-06-09T19:41:35.641Z,22.60
2018-06-09T19:44:03.545Z,22.50
2018-06-09T19:46:31.408Z,22.50
2018-06-09T19:48:59.297Z,22.40
2018-06-09T19:51:27.249Z,22.40
2018-06-09T19:53:55.121Z,22.40
2018-06-09T19:56:22.941Z,22.30
2018-06-09T19:58:50.784Z,22.30
2018-06-09T20:01:18.670Z,22.20
2018-06-09T20:03:46.509Z,22.10
2018-06-09T20:06:14.397Z,22.00
2018-06-09T20:08:42.156Z,22.00
2018-06-09T20:17:33.356Z,21.70
2018-06-09T20:20:01.168Z,21.60
2018-06-09T20:22:29.025Z,21.50
2018-06-09T20:24:56.869Z,21.40
2018-06-09T20:27:24.671Z,21.30
2018-06-09T20:29:56.416Z,21.30
2018-06-09T20:32:24.298Z,21.20
2018-06-09T20:34:52.225Z,21.20
2018-06-09T20:37:20.040Z,21.10
2018-06-09T20:39:47.839Z,21.10
2018-06-09T20:42:15.644Z,21.10
2018-06-09T20:44:43.550Z,21.10
2018-06-09T20:47:11.352Z,21.00
2018-06-09T20:49:39.323Z,21.00
2018-06-09T20:52:07.160Z,20.90
2018-06-09T20:54:34.918Z,21.00
2018-06-09T20:57:02.771Z,20.90
2018-06-09T20:59:30.595Z,20.90
2018-06-09T21:01:58.440Z,20.80
2018-06-09T21:04:26.276Z,20.80
2018-06-09T21:06:54.228Z,20.80
2018-06-09T21:09:22.043Z,20.70
2018-06-09T21:11:49.864Z,20.70
2018-06-09T21:14:17.689Z,20.70
2018-06-09T21:16:45.492Z,20.70
2018-06-09T21:19:13.341Z,20.60
2018-06-09T21:21:41.221Z,20.60
2018-06-09T21:24:09.088Z,20.60
2018-06-09T21:26:42.638Z,20.50
2018-06-09T21:29:11.417Z,20.50
2018-06-09T21:32:02.766Z,20.50
2018-06-09T21:34:58.530Z,20.40
2018-06-09T21:40:48.748Z,20.40
2018-06-09T21:43:41.828Z,20.40
2018-06-09T21:49:11.721Z,20.40
2018-06-09T21:51:40.573Z,20.40
2018-06-09T21:57:34.987Z,20.40
2018-06-09T22:00:02.849Z,20.50
2018-06-09T22:02:30.600Z,20.40
2018-06-09T22:04:58.414Z,20.50
2018-06-09T22:07:26.222Z,20.50
2018-06-09T22:10:11.386Z,20.40
2018-06-09T22:12:39.259Z,20.40
2018-06-09T22:15:07.134Z,20.40
2018-06-09T22:17:34.968Z,20.40
2018-06-09T22:20:02.870Z,20.40
2018-06-09T22:22:30.662Z,20.40
2018-06-09T22:24:58.501Z,20.30
2018-06-09T22:27:26.428Z,20.30
2018-06-09T22:29:54.208Z,20.20
2018-06-09T22:32:22.176Z,20.20
2018-06-09T22:34:49.973Z,20.10
2018-06-09T22:37:17.818Z,20.10
2018-06-09T22:39:45.668Z,20.00
2018-06-09T22:42:13.469Z,20.00
2018-06-09T22:44:41.306Z,19.90
2018-06-09T22:47:09.088Z,19.80
2018-06-09T22:49:36.905Z,19.80
2018-06-09T22:52:04.717Z,19.70
2018-06-09T22:54:32.594Z,19.70
2018-06-09T22:57:00.376Z,19.70
2018-06-09T22:59:28.232Z,19.60
2018-06-09T23:01:55.999Z,19.50
2018-06-09T23:04:23.813Z,19.50
2018-06-09T23:06:51.629Z,19.50
2018-06-09T23:09:19.521Z,19.40
2018-06-09T23:11:47.430Z,19.40
2018-06-09T23:14:15.275Z,19.30
2018-06-09T23:16:43.108Z,19.30
2018-06-09T23:21:39.576Z,19.30
2018-06-09T23:24:07.485Z,19.20
2018-06-09T23:26:35.346Z,19.20
2018-06-09T23:29:03.236Z,19.20
2018-06-09T23:31:31.116Z,19.20
2018-06-09T23:33:58.872Z,19.10
2018-06-09T23:36:26.746Z,19.10
2018-06-09T23:38:54.697Z,19.10
2018-06-09T23:41:22.581Z,19.10
2018-06-09T23:43:50.380Z,19.00
2018-06-09T23:46:18.228Z,18.90
2018-06-09T23:48:46.024Z,18.90
2018-06-09T23:51:13.905Z,18.90
2018-06-09T23:53:41.693Z,18.80
2018-06-09T23:56:09.534Z,18.80
2018-06-09T23:58:37.330Z,18.70
